Terminal Aerodrome Forecast
Issued by NWS

Home | Current Version | Previous Version | Text Only | Print | Product List | Glossary On
Versions: 1 2 3 4 5 6 7 8 9 10 11 12 13 14 15
000
FTUS43 KBIS 220500
TAFJMS
TAF
KJMS 220521Z 2206/2306 15015KT P6SM SCT120
     FM221500 19010KT P6SM -SHRA SCT050 OVC090
     FM221700 24010KT P6SM -SHRA BKN070 OVC090
     FM222300 25008KT P6SM SCT050 BKN090
     FM230300 25006KT P6SM SCT050=

USA.gov is the U.S. government's official web portal to all federal, state and local government web resources and services.